createdAt,value
2018-05-02T00:00:31.883Z,18.15
2018-05-02T00:01:31.886Z,18.15
2018-05-02T00:02:31.993Z,18.14
2018-05-02T00:03:31.816Z,18.14
2018-05-02T00:04:31.947Z,18.15
2018-05-02T00:05:31.762Z,18.12
2018-05-02T00:06:31.913Z,18.13
2018-05-02T00:07:31.938Z,18.14
2018-05-02T00:08:31.933Z,18.14
2018-05-02T00:09:31.833Z,18.14
2018-05-02T00:10:31.948Z,18.14
2018-05-02T00:11:31.859Z,18.13
2018-05-02T00:12:31.934Z,18.14
2018-05-02T00:13:31.922Z,18.13
2018-05-02T00:14:31.959Z,18.12
2018-05-02T00:15:31.929Z,18.15
2018-05-02T00:16:31.816Z,18.13
2018-05-02T00:17:31.761Z,18.13
2018-05-02T00:18:31.778Z,18.12
2018-05-02T00:19:31.945Z,18.13
2018-05-02T00:20:31.803Z,18.14
2018-05-02T00:21:31.837Z,18.12
2018-05-02T00:22:32.032Z,18.13
2018-05-02T00:23:31.948Z,18.13
2018-05-02T00:24:31.755Z,18.13
2018-05-02T00:25:55.526Z,18.12
2018-05-02T00:26:31.854Z,18.13
2018-05-02T00:27:31.899Z,18.13
2018-05-02T00:28:32.212Z,18.11
2018-05-02T00:29:31.975Z,18.1
2018-05-02T00:30:31.955Z,18.1
2018-05-02T00:31:31.880Z,18.11
2018-05-02T00:32:31.866Z,18.09
2018-05-02T00:33:31.792Z,18.12
2018-05-02T00:34:32.000Z,18.12
2018-05-02T00:35:31.829Z,18.11
2018-05-02T00:36:31.951Z,18.12
2018-05-02T00:37:31.782Z,18.12
2018-05-02T00:38:31.763Z,18.11
2018-05-02T00:39:31.867Z,18.11
2018-05-02T00:40:31.910Z,18.11
2018-05-02T00:41:31.921Z,18.12
2018-05-02T00:42:32.020Z,18.1
2018-05-02T00:43:31.922Z,18.1
2018-05-02T00:44:31.965Z,18.11
2018-05-02T00:45:31.796Z,18.1
2018-05-02T00:46:31.769Z,18.1
2018-05-02T00:47:31.942Z,18.1
2018-05-02T00:48:31.843Z,18.1
2018-05-02T00:49:32.011Z,18.11
2018-05-02T00:50:31.800Z,18.1
2018-05-02T00:51:31.805Z,18.1
2018-05-02T00:52:32.012Z,18.08
2018-05-02T00:53:31.907Z,18.11
2018-05-02T00:54:31.797Z,18.11
2018-05-02T00:55:31.716Z,18.1
2018-05-02T00:56:31.906Z,18.08
2018-05-02T00:57:32.229Z,18.09
2018-05-02T00:58:31.809Z,18.09
2018-05-02T00:59:31.955Z,18.08
2018-05-02T01:00:32.186Z,18.1
2018-05-02T01:01:31.829Z,18.1
2018-05-02T01:02:31.802Z,18.06
2018-05-02T01:03:31.703Z,18.07
2018-05-02T01:04:32.034Z,18.07
2018-05-02T01:05:31.795Z,18.08
2018-05-02T01:06:31.913Z,18.08
2018-05-02T01:07:31.867Z,18.08
2018-05-02T01:08:31.876Z,18.06
2018-05-02T01:09:31.820Z,18.09
2018-05-02T01:10:31.770Z,18.08
2018-05-02T01:11:31.940Z,18.1
2018-05-02T01:12:31.919Z,18.06
2018-05-02T01:13:31.840Z,18.06
2018-05-02T01:14:31.964Z,18.06
2018-05-02T01:15:31.906Z,18.07
2018-05-02T01:16:31.818Z,18.05
2018-05-02T01:17:31.866Z,18.08
2018-05-02T01:18:31.898Z,18.06
2018-05-02T01:19:31.937Z,18.06
2018-05-02T01:20:31.965Z,18.09
2018-05-02T01:21:31.824Z,18.06
2018-05-02T01:22:31.856Z,18.06
2018-05-02T01:23:31.851Z,18.05
2018-05-02T01:24:31.786Z,18.05
2018-05-02T01:25:31.978Z,18.03
2018-05-02T01:26:31.747Z,18.05
2018-05-02T01:27:31.742Z,18.05
2018-05-02T01:28:31.724Z,18.04
2018-05-02T01:29:31.773Z,18.06
2018-05-02T01:30:31.848Z,18.04
2018-05-02T01:31:31.936Z,18.04
2018-05-02T01:32:32.138Z,18.05
2018-05-02T01:33:31.851Z,18.04
2018-05-02T01:34:31.876Z,18.05
2018-05-02T01:35:31.992Z,18.05
2018-05-02T01:36:31.874Z,18.05
2018-05-02T01:37:31.861Z,18.04
2018-05-02T01:38:31.715Z,18.05
2018-05-02T01:39:31.766Z,18.04
2018-05-02T01:40:31.812Z,18.03
2018-05-02T01:41:31.813Z,18.05
2018-05-02T01:42:31.898Z,18.06
2018-05-02T01:43:31.877Z,18.04
2018-05-02T01:44:31.847Z,18.07
2018-05-02T01:45:31.898Z,18.05
2018-05-02T01:46:31.883Z,18.03
2018-05-02T01:47:31.793Z,18.02
2018-05-02T01:48:31.771Z,18.03
2018-05-02T01:49:31.802Z,18.03
2018-05-02T01:50:31.862Z,18.03
2018-05-02T01:51:31.872Z,18.04
2018-05-02T01:52:31.796Z,18.02
2018-05-02T01:53:31.713Z,18.03
2018-05-02T01:54:31.875Z,18.05
2018-05-02T01:55:31.838Z,18.03
2018-05-02T01:56:31.746Z,18.04
2018-05-02T01:57:31.741Z,17.99
2018-05-02T01:58:31.840Z,18.04
2018-05-02T01:59:31.860Z,18.04
2018-05-02T02:00:31.738Z,18.02
2018-05-02T02:01:31.902Z,18
2018-05-02T02:02:31.926Z,17.99
2018-05-02T02:03:31.736Z,17.99
2018-05-02T02:04:31.950Z,18.02
2018-05-02T02:05:31.873Z,18.02
2018-05-02T02:06:31.831Z,18
2018-05-02T02:07:31.834Z,18.02
2018-05-02T02:08:31.802Z,18.02
2018-05-02T02:09:31.891Z,17.99
2018-05-02T02:10:31.913Z,18
2018-05-02T02:11:31.753Z,18
2018-05-02T02:12:31.861Z,17.99
2018-05-02T02:13:31.942Z,18
2018-05-02T02:14:31.886Z,18.02
2018-05-02T02:15:31.800Z,18.02
2018-05-02T02:16:31.756Z,17.99
2018-05-02T02:17:31.747Z,17.99
2018-05-02T02:18:31.689Z,17.98
2018-05-02T02:19:31.787Z,17.98
2018-05-02T02:20:31.799Z,18
2018-05-02T02:21:31.743Z,18
2018-05-02T02:22:31.865Z,18
2018-05-02T02:23:31.993Z,18
2018-05-02T02:24:31.841Z,18.02
2018-05-02T02:25:31.823Z,17.99
2018-05-02T02:26:31.956Z,17.98
2018-05-02T02:27:31.867Z,17.99
2018-05-02T02:28:32.085Z,17.98
2018-05-02T02:29:31.799Z,17.97
2018-05-02T02:30:31.943Z,17.99
2018-05-02T02:31:31.856Z,17.99
2018-05-02T02:32:31.866Z,17.98
2018-05-02T02:33:31.741Z,17.97
2018-05-02T02:34:32.031Z,17.97
2018-05-02T02:35:31.907Z,17.98
2018-05-02T02:36:31.952Z,17.96
2018-05-02T02:37:31.813Z,17.98
2018-05-02T02:38:31.727Z,18
2018-05-02T02:39:31.826Z,17.96
2018-05-02T02:40:31.885Z,17.99
2018-05-02T02:41:31.934Z,17.97
2018-05-02T02:42:31.976Z,17.97
2018-05-02T02:43:31.859Z,17.96
2018-05-02T02:44:31.939Z,17.96
2018-05-02T02:45:31.793Z,17.96
2018-05-02T02:46:31.949Z,17.97
2018-05-02T02:47:31.909Z,17.97
2018-05-02T02:48:31.991Z,17.98
2018-05-02T02:49:31.837Z,17.97
2018-05-02T02:50:31.954Z,17.97
2018-05-02T02:51:31.860Z,17.99
2018-05-02T02:52:31.969Z,17.98
2018-05-02T02:53:31.828Z,17.97
2018-05-02T02:54:31.869Z,17.98
2018-05-02T02:55:31.807Z,17.95
2018-05-02T02:56:31.868Z,17.97
2018-05-02T02:57:31.866Z,17.97
2018-05-02T02:58:31.924Z,17.97
2018-05-02T02:59:31.950Z,17.96
2018-05-02T03:00:31.851Z,17.95
2018-05-02T03:01:31.908Z,17.95
2018-05-02T03:02:31.824Z,17.95
2018-05-02T03:03:31.933Z,17.96
2018-05-02T03:04:32.033Z,17.94
2018-05-02T03:05:31.971Z,17.95
2018-05-02T03:06:31.793Z,17.92
2018-05-02T03:07:31.766Z,17.95
2018-05-02T03:08:55.387Z,17.94
2018-05-02T03:09:31.733Z,17.95
2018-05-02T03:10:33.400Z,17.95
2018-05-02T03:11:32.139Z,17.94
2018-05-02T03:12:33.584Z,17.95
2018-05-02T03:13:31.861Z,17.94
2018-05-02T03:14:33.516Z,17.95
2018-05-02T03:15:33.410Z,17.94
2018-05-02T03:16:31.985Z,17.95
2018-05-02T03:17:31.878Z,17.93
2018-05-02T03:18:33.633Z,17.92
2018-05-02T03:19:33.699Z,17.94
2018-05-02T03:20:33.182Z,17.93
2018-05-02T03:21:31.793Z,17.95
2018-05-02T03:22:31.998Z,17.94
2018-05-02T03:23:33.688Z,17.96
2018-05-02T03:24:33.675Z,17.94
2018-05-02T03:25:31.763Z,17.95
2018-05-02T03:26:31.886Z,17.93
2018-05-02T03:27:31.812Z,17.94
2018-05-02T03:28:31.791Z,17.94
2018-05-02T03:29:31.736Z,17.93
2018-05-02T03:30:31.942Z,17.93
2018-05-02T03:31:31.904Z,17.92
2018-05-02T03:32:31.947Z,17.91
2018-05-02T03:33:31.834Z,17.93
2018-05-02T03:34:31.815Z,17.95
2018-05-02T03:35:31.785Z,17.93
2018-05-02T03:36:31.876Z,17.92
2018-05-02T03:37:31.949Z,17.92
2018-05-02T03:38:31.740Z,17.96
2018-05-02T03:39:31.705Z,17.94
2018-05-02T03:40:31.812Z,17.93
2018-05-02T03:41:31.841Z,17.94
2018-05-02T03:42:31.768Z,17.95
2018-05-02T03:43:31.870Z,17.94
2018-05-02T03:44:31.823Z,17.92
2018-05-02T03:45:31.873Z,17.94
2018-05-02T03:46:31.693Z,17.93
2018-05-02T03:47:31.735Z,17.91
2018-05-02T03:48:31.807Z,17.91
2018-05-02T03:49:31.787Z,17.9
2018-05-02T03:50:31.779Z,17.91
2018-05-02T03:51:31.717Z,17.92
2018-05-02T03:52:31.906Z,17.91
2018-05-02T03:53:31.784Z,17.91
2018-05-02T03:54:31.740Z,17.9
2018-05-02T03:55:31.797Z,17.91
2018-05-02T03:56:31.722Z,17.91
2018-05-02T03:57:31.696Z,17.92
2018-05-02T03:58:31.750Z,17.92
2018-05-02T03:59:31.821Z,17.91
2018-05-02T04:00:31.773Z,17.88
2018-05-02T04:01:31.738Z,17.91
2018-05-02T04:02:31.871Z,17.93
2018-05-02T04:03:31.814Z,17.9
2018-05-02T04:04:31.798Z,17.9
2018-05-02T04:05:31.812Z,17.92
2018-05-02T04:06:31.886Z,17.9
2018-05-02T04:07:31.926Z,17.9
2018-05-02T04:08:32.207Z,17.9
2018-05-02T04:09:31.667Z,17.9
2018-05-02T04:10:31.915Z,17.89
2018-05-02T04:11:31.721Z,17.9
2018-05-02T04:12:31.736Z,17.88
2018-05-02T04:13:31.873Z,17.9
2018-05-02T04:14:31.850Z,17.91
2018-05-02T04:15:31.790Z,17.91
2018-05-02T04:16:31.853Z,17.91
2018-05-02T04:17:31.754Z,17.89
2018-05-02T04:18:31.776Z,17.89
2018-05-02T04:19:31.951Z,17.9
2018-05-02T04:20:31.856Z,17.91
2018-05-02T04:21:31.845Z,17.9
2018-05-02T04:22:31.864Z,17.9
2018-05-02T04:23:31.810Z,17.88
2018-05-02T04:24:31.787Z,17.9
2018-05-02T04:25:31.711Z,17.89
2018-05-02T04:26:31.869Z,17.89
2018-05-02T04:27:31.857Z,17.89
2018-05-02T04:28:31.745Z,17.89
2018-05-02T04:29:31.941Z,17.91
2018-05-02T04:30:31.690Z,17.89
2018-05-02T04:31:31.867Z,17.9
2018-05-02T04:32:31.745Z,17.9
2018-05-02T04:33:31.752Z,17.9
2018-05-02T04:34:31.927Z,17.91
2018-05-02T04:35:31.778Z,17.89
2018-05-02T04:36:31.770Z,17.89
2018-05-02T04:37:31.821Z,17.88
2018-05-02T04:38:31.811Z,17.89
2018-05-02T04:39:31.847Z,17.89
2018-05-02T04:40:31.882Z,17.9
2018-05-02T04:41:33.601Z,17.9
2018-05-02T04:42:31.838Z,17.9
2018-05-02T04:43:31.924Z,17.88
2018-05-02T04:44:33.466Z,17.91
2018-05-02T04:45:33.355Z,17.9
2018-05-02T04:46:33.462Z,17.9
2018-05-02T04:47:31.729Z,17.89
2018-05-02T04:48:31.777Z,17.9
2018-05-02T04:49:33.534Z,17.89
2018-05-02T04:50:33.233Z,17.89
2018-05-02T04:51:33.232Z,17.91
2018-05-02T04:52:31.832Z,17.88
2018-05-02T04:53:33.684Z,17.88
2018-05-02T04:54:33.667Z,17.88
2018-05-02T04:55:33.604Z,17.9
2018-05-02T04:56:31.736Z,17.89
2018-05-02T04:57:33.740Z,17.88
2018-05-02T04:58:33.337Z,17.89
2018-05-02T04:59:33.941Z,17.87
2018-05-02T05:00:33.346Z,17.88
2018-05-02T05:01:33.310Z,17.9
2018-05-02T05:02:33.299Z,17.9
2018-05-02T05:03:33.313Z,17.89
2018-05-02T05:04:33.365Z,17.89
2018-05-02T05:05:33.310Z,17.88
2018-05-02T05:06:33.760Z,17.88
2018-05-02T05:07:33.583Z,17.89
2018-05-02T05:08:33.615Z,17.88
2018-05-02T05:09:33.574Z,17.88
2018-05-02T05:10:33.509Z,17.9
2018-05-02T05:11:33.470Z,17.9
2018-05-02T05:12:31.898Z,17.88
2018-05-02T05:13:33.459Z,17.9
2018-05-02T05:14:31.788Z,17.88
2018-05-02T05:15:31.836Z,17.87
2018-05-02T05:16:33.405Z,17.88
2018-05-02T05:17:33.522Z,17.89
2018-05-02T05:18:33.515Z,17.91
2018-05-02T05:19:33.371Z,17.91
2018-05-02T05:20:33.295Z,17.91
2018-05-02T05:21:33.261Z,17.9
2018-05-02T05:22:33.322Z,17.92
2018-05-02T05:23:33.350Z,17.89
2018-05-02T05:24:33.409Z,17.91
2018-05-02T05:25:33.299Z,17.9
2018-05-02T05:26:33.089Z,17.91
2018-05-02T05:27:33.539Z,17.91
2018-05-02T05:28:33.771Z,17.88
2018-05-02T05:29:33.354Z,17.9
2018-05-02T05:30:33.378Z,17.9
2018-05-02T05:31:33.644Z,17.91
2018-05-02T05:32:33.546Z,17.9
2018-05-02T05:33:32.039Z,17.88
2018-05-02T05:34:33.589Z,17.9
2018-05-02T05:35:33.636Z,17.9
2018-05-02T05:36:33.706Z,17.88
2018-05-02T05:37:33.211Z,17.88
2018-05-02T05:38:32.450Z,17.88
2018-05-02T05:39:33.248Z,17.88
2018-05-02T05:40:33.666Z,17.91
2018-05-02T05:41:33.611Z,17.88
2018-05-02T05:42:33.420Z,17.88
2018-05-02T05:43:33.762Z,17.9
2018-05-02T05:44:32.445Z,17.89
2018-05-02T05:45:32.612Z,17.88
2018-05-02T05:46:32.452Z,17.9
2018-05-02T05:47:32.389Z,17.88
2018-05-02T05:48:32.426Z,17.87
2018-05-02T05:49:32.409Z,17.89
2018-05-02T05:50:32.431Z,17.89
2018-05-02T05:51:32.313Z,17.88
2018-05-02T05:52:33.046Z,17.89
2018-05-02T05:53:32.646Z,17.9
2018-05-02T05:54:33.271Z,17.88
2018-05-02T05:55:32.650Z,17.89
2018-05-02T05:56:32.471Z,17.88
2018-05-02T05:57:31.744Z,17.9
2018-05-02T05:58:31.796Z,17.89
2018-05-02T05:59:31.831Z,17.88
2018-05-02T06:00:31.937Z,17.88
2018-05-02T06:01:31.720Z,17.88
2018-05-02T06:02:31.875Z,17.9
2018-05-02T06:03:31.960Z,17.89
2018-05-02T06:04:31.636Z,17.89
2018-05-02T06:05:31.881Z,17.91
2018-05-02T06:06:31.825Z,17.89
2018-05-02T06:07:31.745Z,17.9
2018-05-02T06:08:31.790Z,17.91
2018-05-02T06:09:31.773Z,17.89
2018-05-02T06:10:31.856Z,17.9
2018-05-02T06:11:31.719Z,17.89
2018-05-02T06:12:31.844Z,17.89
2018-05-02T06:13:31.834Z,17.88
2018-05-02T06:14:31.633Z,17.9
2018-05-02T06:15:31.872Z,17.89
2018-05-02T06:16:31.597Z,17.88
2018-05-02T06:17:31.599Z,17.89
2018-05-02T06:18:31.635Z,17.9
2018-05-02T06:19:31.841Z,17.89
2018-05-02T06:20:31.856Z,17.91
2018-05-02T06:21:31.944Z,17.89
2018-05-02T06:22:31.634Z,17.89
2018-05-02T06:23:31.820Z,17.91
2018-05-02T06:24:31.722Z,17.89
2018-05-02T06:25:31.823Z,17.9
2018-05-02T06:26:31.845Z,17.88
2018-05-02T06:27:31.827Z,17.89
2018-05-02T06:28:31.595Z,17.87
2018-05-02T06:29:31.673Z,17.88
2018-05-02T06:30:31.634Z,17.89
2018-05-02T06:31:31.665Z,17.91
2018-05-02T06:32:31.651Z,17.9
2018-05-02T06:33:31.769Z,17.9
2018-05-02T06:34:31.686Z,17.88
2018-05-02T06:35:31.734Z,17.88
2018-05-02T06:36:31.659Z,17.9
2018-05-02T06:37:31.915Z,17.89
2018-05-02T06:38:31.840Z,17.89
2018-05-02T06:39:31.880Z,17.89
2018-05-02T06:40:31.824Z,17.9
2018-05-02T06:41:31.659Z,17.9
2018-05-02T06:42:31.697Z,17.9
2018-05-02T06:43:32.599Z,17.9
2018-05-02T06:44:32.532Z,17.9
2018-05-02T06:45:31.767Z,17.9
2018-05-02T06:46:31.715Z,17.91
2018-05-02T06:47:31.728Z,17.9
2018-05-02T06:48:31.828Z,17.88
2018-05-02T06:49:31.681Z,17.9
2018-05-02T06:50:31.731Z,17.91
2018-05-02T06:51:31.710Z,17.9
2018-05-02T06:52:31.743Z,17.89
2018-05-02T06:53:31.851Z,17.9
2018-05-02T06:54:31.870Z,17.88
2018-05-02T06:55:31.741Z,17.89
2018-05-02T06:56:31.740Z,17.89
2018-05-02T06:57:31.735Z,17.88
2018-05-02T06:58:31.757Z,17.89
2018-05-02T06:59:31.908Z,17.89
2018-05-02T07:00:31.868Z,17.9
2018-05-02T07:01:31.765Z,17.9
2018-05-02T07:02:31.836Z,17.88
2018-05-02T07:03:31.825Z,17.9
2018-05-02T07:04:31.667Z,17.88
2018-05-02T07:05:31.960Z,17.89
2018-05-02T07:06:31.749Z,17.89
2018-05-02T07:07:31.710Z,17.92
2018-05-02T07:08:31.684Z,17.9
2018-05-02T07:09:31.872Z,17.95
2018-05-02T07:10:31.784Z,17.94
2018-05-02T07:11:31.737Z,17.95
2018-05-02T07:12:31.738Z,17.96
2018-05-02T07:13:32.047Z,17.98
2018-05-02T07:14:31.950Z,17.95
2018-05-02T07:15:31.977Z,17.95
2018-05-02T07:16:31.732Z,17.94
2018-05-02T07:17:31.721Z,17.94
2018-05-02T07:18:31.787Z,17.94
2018-05-02T07:19:31.851Z,17.92
2018-05-02T07:20:31.768Z,17.91
2018-05-02T07:21:31.759Z,17.94
2018-05-02T07:22:31.821Z,17.93
2018-05-02T07:23:31.723Z,17.92
2018-05-02T07:24:31.705Z,17.92
2018-05-02T07:25:31.790Z,17.92
2018-05-02T07:26:31.720Z,17.91
2018-05-02T07:27:31.909Z,17.91
2018-05-02T07:28:31.752Z,17.94
2018-05-02T07:29:31.767Z,17.92
2018-05-02T07:30:31.847Z,17.91
2018-05-02T07:31:31.613Z,17.9
2018-05-02T07:32:32.464Z,17.92
2018-05-02T07:33:31.715Z,17.92
2018-05-02T07:34:31.610Z,17.92
2018-05-02T07:35:31.794Z,17.92
2018-05-02T07:36:31.863Z,17.91
2018-05-02T07:37:31.753Z,17.89
2018-05-02T07:38:31.713Z,17.9
2018-05-02T07:39:31.864Z,17.91
2018-05-02T07:40:31.875Z,17.9
2018-05-02T07:41:31.828Z,17.91
2018-05-02T07:42:31.642Z,17.92
2018-05-02T07:43:31.632Z,17.9
2018-05-02T07:44:31.753Z,17.92
2018-05-02T07:45:31.868Z,17.9
2018-05-02T07:46:31.758Z,17.9
2018-05-02T07:47:31.756Z,17.89
2018-05-02T07:48:31.919Z,17.91
2018-05-02T07:49:31.642Z,17.89
2018-05-02T07:50:31.748Z,17.9
2018-05-02T07:51:31.737Z,17.88
2018-05-02T07:52:31.697Z,17.89
2018-05-02T07:53:31.687Z,17.88
2018-05-02T07:54:31.834Z,17.89
2018-05-02T07:55:31.631Z,17.88
2018-05-02T07:56:32.114Z,17.88
2018-05-02T07:57:31.851Z,17.87
2018-05-02T07:58:31.746Z,17.88
2018-05-02T07:59:31.599Z,17.89
2018-05-02T08:00:31.617Z,17.9
2018-05-02T08:01:31.718Z,17.87
2018-05-02T08:02:31.621Z,17.89
2018-05-02T08:03:31.756Z,17.88
2018-05-02T08:04:31.823Z,17.88
2018-05-02T08:05:31.685Z,17.89
2018-05-02T08:06:31.833Z,17.87
2018-05-02T08:07:31.790Z,17.84
2018-05-02T08:08:31.726Z,17.87
2018-05-02T08:09:31.632Z,17.87
2018-05-02T08:10:31.871Z,17.87
2018-05-02T08:11:31.645Z,17.85
2018-05-02T08:12:31.643Z,17.85
2018-05-02T08:13:31.831Z,17.87
2018-05-02T08:14:31.896Z,17.85
2018-05-02T08:15:31.855Z,17.89
2018-05-02T08:16:32.424Z,17.88
2018-05-02T08:17:31.683Z,17.87
2018-05-02T08:18:31.707Z,17.87
2018-05-02T08:19:31.617Z,17.88
2018-05-02T08:20:31.758Z,17.83
2018-05-02T08:21:31.669Z,17.84
2018-05-02T08:22:31.755Z,17.85
2018-05-02T08:23:31.669Z,17.85
2018-05-02T08:24:31.784Z,17.87
2018-05-02T08:25:31.789Z,17.87
2018-05-02T08:26:31.693Z,17.87
2018-05-02T08:27:31.649Z,17.88
2018-05-02T08:28:31.747Z,17.85
2018-05-02T08:29:31.761Z,17.84
2018-05-02T08:30:31.641Z,17.84
2018-05-02T08:31:31.760Z,17.84
2018-05-02T08:32:31.830Z,17.85
2018-05-02T08:33:31.633Z,17.88
2018-05-02T08:34:31.774Z,17.84
2018-05-02T08:35:31.929Z,17.85
2018-05-02T08:36:31.738Z,17.85
2018-05-02T08:37:31.749Z,17.83
2018-05-02T08:38:31.707Z,17.88
2018-05-02T08:39:31.813Z,17.85
2018-05-02T08:40:31.886Z,17.87
2018-05-02T08:41:31.833Z,17.84
2018-05-02T08:42:31.856Z,17.84
2018-05-02T08:43:31.753Z,17.84
2018-05-02T08:44:31.693Z,17.84
2018-05-02T08:45:31.772Z,17.85
2018-05-02T08:46:31.657Z,17.84
2018-05-02T08:47:31.741Z,17.84
2018-05-02T08:48:31.656Z,17.85
2018-05-02T08:49:31.751Z,17.84
2018-05-02T08:50:31.633Z,17.84
2018-05-02T08:51:31.755Z,17.85
2018-05-02T08:52:31.785Z,17.84
2018-05-02T08:53:31.809Z,17.84
2018-05-02T08:54:31.749Z,17.85
2018-05-02T08:55:31.704Z,17.83
2018-05-02T08:56:31.685Z,17.85
2018-05-02T08:57:32.229Z,17.84
2018-05-02T08:58:31.811Z,17.84
2018-05-02T08:59:31.663Z,17.83
2018-05-02T09:00:31.754Z,17.83
2018-05-02T09:01:31.781Z,17.85
2018-05-02T09:02:31.637Z,17.84
2018-05-02T09:03:31.788Z,17.84
2018-05-02T09:04:31.716Z,17.83
2018-05-02T09:05:31.762Z,17.83
2018-05-02T09:06:31.808Z,17.82
2018-05-02T09:07:31.665Z,17.83
2018-05-02T09:08:31.795Z,17.8
2018-05-02T09:09:31.670Z,17.81
2018-05-02T09:10:31.800Z,17.83
2018-05-02T09:11:31.655Z,17.81
2018-05-02T09:12:31.592Z,17.82
2018-05-02T09:13:31.835Z,17.82
2018-05-02T09:14:31.738Z,17.82
2018-05-02T09:15:32.147Z,17.83
2018-05-02T09:16:31.735Z,17.84
2018-05-02T09:17:31.577Z,17.82
2018-05-02T09:18:31.602Z,17.81
2018-05-02T09:19:31.823Z,17.81
2018-05-02T09:20:31.688Z,17.82
2018-05-02T09:21:31.637Z,17.82
2018-05-02T09:22:31.669Z,17.81
2018-05-02T09:23:31.857Z,17.83
2018-05-02T09:24:31.504Z,17.83
2018-05-02T09:25:31.812Z,17.83
2018-05-02T09:26:31.788Z,17.81
2018-05-02T09:27:31.731Z,17.82
2018-05-02T09:28:31.822Z,17.82
2018-05-02T09:29:31.621Z,17.83
2018-05-02T09:30:31.774Z,17.83
2018-05-02T09:31:31.889Z,17.83
2018-05-02T09:32:31.728Z,17.81
2018-05-02T09:33:31.759Z,17.82
2018-05-02T09:34:31.646Z,17.8
2018-05-02T09:35:31.945Z,17.81
2018-05-02T09:36:31.606Z,17.81
2018-05-02T09:37:31.602Z,17.82
2018-05-02T09:38:31.649Z,17.81
2018-05-02T09:39:31.707Z,17.79
2018-05-02T09:40:31.678Z,17.8
2018-05-02T09:41:31.705Z,17.8
2018-05-02T09:42:31.682Z,17.8
2018-05-02T09:43:31.684Z,17.82
2018-05-02T09:44:31.733Z,17.79
2018-05-02T09:45:31.540Z,17.81
2018-05-02T09:46:31.900Z,17.81
2018-05-02T09:47:31.739Z,17.81
2018-05-02T09:48:31.689Z,17.79
2018-05-02T09:49:31.621Z,17.8
2018-05-02T09:50:31.737Z,17.79
2018-05-02T09:51:31.723Z,17.81
2018-05-02T09:52:31.648Z,17.8
2018-05-02T09:53:31.729Z,17.8
2018-05-02T09:54:31.586Z,17.82
2018-05-02T09:55:31.568Z,17.82
2018-05-02T09:56:31.599Z,17.8
2018-05-02T09:57:31.682Z,17.8
2018-05-02T09:58:31.751Z,17.8
2018-05-02T09:59:31.713Z,17.81
2018-05-02T10:00:31.815Z,17.8
2018-05-02T10:01:31.450Z,17.8
2018-05-02T10:02:31.705Z,17.79
2018-05-02T10:03:31.864Z,17.79
2018-05-02T10:04:32.260Z,17.8
2018-05-02T10:05:31.775Z,17.78
2018-05-02T10:06:31.716Z,17.78
2018-05-02T10:07:31.656Z,17.79
2018-05-02T10:08:31.692Z,17.79
2018-05-02T10:09:31.738Z,17.79
2018-05-02T10:10:31.596Z,17.8
2018-05-02T10:11:31.677Z,17.79
2018-05-02T10:12:32.051Z,17.81
2018-05-02T10:13:31.749Z,17.78
2018-05-02T10:14:31.744Z,17.78
2018-05-02T10:15:32.029Z,17.79
2018-05-02T10:16:31.663Z,17.78
2018-05-02T10:17:31.731Z,17.79
2018-05-02T10:18:32.164Z,17.8
2018-05-02T10:19:31.566Z,17.77
2018-05-02T10:20:31.778Z,17.81
2018-05-02T10:21:31.588Z,17.79
2018-05-02T10:22:31.706Z,17.78
2018-05-02T10:23:31.720Z,17.79
2018-05-02T10:24:31.602Z,17.8
2018-05-02T10:25:31.556Z,17.8
2018-05-02T10:26:31.546Z,17.77
2018-05-02T10:27:31.831Z,17.8
2018-05-02T10:28:31.797Z,17.78
2018-05-02T10:29:31.572Z,17.78
2018-05-02T10:30:31.653Z,17.77
2018-05-02T10:31:31.528Z,17.77
2018-05-02T10:32:31.760Z,17.8
2018-05-02T10:33:31.773Z,17.8
2018-05-02T10:34:31.594Z,17.8
2018-05-02T10:35:31.601Z,17.8
2018-05-02T10:36:31.706Z,17.78
2018-05-02T10:37:31.773Z,17.77
2018-05-02T10:38:31.549Z,17.78
2018-05-02T10:39:31.730Z,17.8
2018-05-02T10:40:31.577Z,17.78
2018-05-02T10:41:31.655Z,17.79
2018-05-02T10:42:31.684Z,17.78
2018-05-02T10:43:31.578Z,17.79
2018-05-02T10:44:31.750Z,17.8
2018-05-02T10:45:31.706Z,17.77
2018-05-02T10:46:31.620Z,17.77
2018-05-02T10:47:31.765Z,17.78
2018-05-02T10:48:31.657Z,17.78
2018-05-02T10:49:31.741Z,17.76
2018-05-02T10:50:32.218Z,17.78
2018-05-02T10:51:31.582Z,17.79
2018-05-02T10:52:31.751Z,17.79
2018-05-02T10:53:31.746Z,17.79
2018-05-02T10:54:31.759Z,17.78
2018-05-02T10:55:31.747Z,17.76
2018-05-02T10:56:31.680Z,17.76
2018-05-02T10:57:31.715Z,17.78
2018-05-02T10:58:31.692Z,17.78
2018-05-02T10:59:31.745Z,17.77
2018-05-02T11:00:31.592Z,17.77
2018-05-02T11:01:31.547Z,17.77
2018-05-02T11:02:31.660Z,17.77
2018-05-02T11:03:31.619Z,17.78
2018-05-02T11:04:31.747Z,17.76
2018-05-02T11:05:31.739Z,17.78
2018-05-02T11:06:31.593Z,17.77
2018-05-02T11:07:31.764Z,17.76
2018-05-02T11:08:31.766Z,17.76
2018-05-02T11:09:31.763Z,17.75
2018-05-02T11:10:31.614Z,17.76
2018-05-02T11:11:31.812Z,17.76
2018-05-02T11:12:31.609Z,17.77
2018-05-02T11:13:31.712Z,17.77
2018-05-02T11:14:31.568Z,17.78
2018-05-02T11:15:31.601Z,17.77
2018-05-02T11:16:31.563Z,17.76
2018-05-02T11:17:31.715Z,17.76
2018-05-02T11:18:31.781Z,17.76
2018-05-02T11:19:31.583Z,17.76
2018-05-02T11:20:31.692Z,17.77
2018-05-02T11:21:31.503Z,17.78
2018-05-02T11:22:31.619Z,17.78
2018-05-02T11:23:31.916Z,17.78
2018-05-02T11:24:31.748Z,17.76
2018-05-02T11:25:31.670Z,17.76
2018-05-02T11:26:31.767Z,17.75
2018-05-02T11:27:31.624Z,17.76
2018-05-02T11:28:31.975Z,17.76
2018-05-02T11:29:31.822Z,17.76
2018-05-02T11:30:31.574Z,17.77
2018-05-02T11:31:31.551Z,17.76
2018-05-02T11:32:31.781Z,17.79
2018-05-02T11:33:31.598Z,17.76
2018-05-02T11:34:31.628Z,17.77
2018-05-02T11:35:31.796Z,17.75
2018-05-02T11:36:31.740Z,17.77
2018-05-02T11:37:31.819Z,17.78
2018-05-02T11:38:31.680Z,17.76
2018-05-02T11:39:31.685Z,17.78
2018-05-02T11:40:32.032Z,17.78
2018-05-02T11:41:31.560Z,17.78
2018-05-02T11:42:31.566Z,17.75
2018-05-02T11:43:31.654Z,17.76
2018-05-02T11:44:31.618Z,17.77
2018-05-02T11:45:31.569Z,17.75
2018-05-02T11:46:31.606Z,17.76
2018-05-02T11:47:31.534Z,17.78
2018-05-02T11:48:31.781Z,17.78
2018-05-02T11:49:31.563Z,17.76
2018-05-02T11:50:31.537Z,17.78
2018-05-02T11:51:31.804Z,17.76
2018-05-02T11:52:31.658Z,17.77
2018-05-02T11:53:31.911Z,17.76
2018-05-02T11:54:31.719Z,17.76
2018-05-02T11:55:31.748Z,17.76
2018-05-02T11:56:31.702Z,17.74
2018-05-02T11:57:31.629Z,17.77
2018-05-02T11:58:31.768Z,17.76
2018-05-02T11:59:31.740Z,17.76
2018-05-02T12:00:31.755Z,17.77
2018-05-02T12:01:31.834Z,17.77
2018-05-02T12:02:32.025Z,17.77
2018-05-02T12:03:32.019Z,17.76
2018-05-02T12:04:31.647Z,17.76
2018-05-02T12:05:31.764Z,17.75
2018-05-02T12:06:31.638Z,17.75
2018-05-02T12:07:31.554Z,17.75
2018-05-02T12:08:31.752Z,17.76
2018-05-02T12:09:31.541Z,17.75
2018-05-02T12:10:32.170Z,17.76
2018-05-02T12:11:31.611Z,17.77
2018-05-02T12:12:31.649Z,17.76
2018-05-02T12:13:31.638Z,17.77
2018-05-02T12:14:31.670Z,17.75
2018-05-02T12:15:31.669Z,17.76
2018-05-02T12:16:31.584Z,17.78
2018-05-02T12:17:31.499Z,17.76
2018-05-02T12:18:31.576Z,17.76
2018-05-02T12:19:31.653Z,17.76
2018-05-02T12:20:31.612Z,17.75
2018-05-02T12:21:31.615Z,17.75
2018-05-02T12:22:31.644Z,17.73
2018-05-02T12:23:31.608Z,17.76
2018-05-02T12:24:31.717Z,17.75
2018-05-02T12:25:31.563Z,17.75
2018-05-02T12:26:31.727Z,17.75
2018-05-02T12:27:31.621Z,17.76
2018-05-02T12:28:31.723Z,17.75
2018-05-02T12:29:31.632Z,17.76
2018-05-02T12:30:31.600Z,17.74
2018-05-02T12:31:54.902Z,17.76
2018-05-02T12:32:31.511Z,17.74
2018-05-02T12:33:31.645Z,17.73
2018-05-02T12:34:31.686Z,17.75
2018-05-02T12:35:32.426Z,17.77
2018-05-02T12:36:31.658Z,17.76
2018-05-02T12:37:31.687Z,17.73
2018-05-02T12:38:31.809Z,17.74
2018-05-02T12:39:31.871Z,17.74
2018-05-02T12:40:31.566Z,17.75
2018-05-02T12:41:31.574Z,17.75
2018-05-02T12:42:31.890Z,17.75
2018-05-02T12:43:31.760Z,17.76
2018-05-02T12:44:31.498Z,17.76
2018-05-02T12:45:31.740Z,17.76
2018-05-02T12:46:31.789Z,17.73
2018-05-02T12:47:31.509Z,17.75
2018-05-02T12:48:31.719Z,17.76
2018-05-02T12:49:31.704Z,17.76
2018-05-02T12:50:31.602Z,17.76
2018-05-02T12:51:31.570Z,17.74
2018-05-02T12:52:31.530Z,17.73
2018-05-02T12:53:31.759Z,17.75
2018-05-02T12:54:31.625Z,17.75
2018-05-02T12:55:31.602Z,17.77
2018-05-02T12:56:31.548Z,17.75
2018-05-02T12:57:31.565Z,17.72